Statia Express — V7TT3 — position and weather

sailwx.info

Track history (hours):
 
Tides and Currents Weather Stations Pressure Air Temp Water Temp Dewpoint Dewpoint Depression Visibility Wind Speed Wind Dir Waves Ship Positions

Statia Express

Last reported at 2018-Apr-20 08:30 UTC. Time now 2018-Apr-20 08:43 UTC.
Position N 17°29' W 063°00'.

Length 28 m; draft 4.1 m.

Type: Tug. MMSI: 538003879.

Date/timePositionNaut miles runAvg speedWind from/ knotsBaromVisibWave heightAir tempDewpointWater temp
2018-Apr-20 08:30N 17°29' W 063°00'0 0.0
2018-Apr-20 07:52N 17°29' W 063°00'0 0.0
2018-Apr-20 07:27N 17°29' W 063°00'1 0.5
2018-Apr-20 06:25N 17°29' W 063°01'0 0.2
2018-Apr-20 05:55N 17°29' W 063°01'1 0.4
2018-Apr-20 04:47N 17°29' W 063°00'0 0.1
2018-Apr-20 04:26N 17°29' W 063°00'0 0.1
2018-Apr-20 03:59N 17°29' W 063°00'0 0.4
2018-Apr-20 03:19N 17°29' W 063°00'0 0.0
2018-Apr-20 02:33N 17°29' W 063°00'0 0.0
2018-Apr-20 01:36N 17°29' W 063°00'0 0.0
2018-Apr-20 01:19N 17°29' W 063°00'0 0.0
2018-Apr-20 00:54N 17°29' W 063°00'0 0.0
2018-Apr-20 00:27N 17°29' W 063°00'21 0.5
2018-Apr-18 05:29N 17°16' W 062°43'1 0.1
2018-Apr-17 18:44N 17°17' W 062°43'0 0.0
2018-Apr-17 18:29N 17°17' W 062°43'3 0.3
2018-Apr-17 09:41N 17°17' W 062°46'1 4.6
2018-Apr-17 09:29N 17°17' W 062°47'11 4.7
2018-Apr-17 07:12N 17°23' W 062°56'1 4.4
2018-Apr-17 06:58N 17°24' W 062°57'6 2.0
2018-Apr-17 03:51N 17°29' W 063°00'0 0.1
2018-Apr-17 03:26N 17°29' W 063°00'0 0.0
2018-Apr-17 02:53N 17°29' W 063°00'0 0.0
2018-Apr-16 23:50N 17°29' W 063°00'0 0.0
2018-Apr-16 23:23N 17°29' W 063°00'0 0.0
2018-Apr-16 23:00N 17°29' W 063°00'0 0.0
2018-Apr-16 22:25N 17°29' W 063°00'0 0.0
2018-Apr-16 21:56N 17°29' W 063°00'0 0.1
2018-Apr-16 21:27N 17°29' W 063°00'0 0.4
2018-Apr-16 20:49N 17°29' W 063°00'0 0.0
2018-Apr-16 20:27N 17°29' W 063°00'0 0.7
2018-Apr-16 19:58N 17°29' W 063°00'0 0.0
2018-Apr-16 19:29N 17°29' W 063°00'0 0.4
2018-Apr-16 18:21N 17°29' W 063°00'0 0.0
2018-Apr-16 18:00N 17°29' W 063°00'0 0.0
2018-Apr-16 17:29N 17°29' W 063°00'0 0.0
2018-Apr-16 17:00N 17°29' W 063°00'0 0.0
2018-Apr-16 16:26N 17°29' W 063°00'0 0.0
2018-Apr-16 14:30N 17°29' W 063°00'0 0.3
2018-Apr-16 13:57N 17°29' W 063°00'1 0.5
2018-Apr-16 12:43N 17°29' W 063°01'0 0.3
2018-Apr-16 12:28N 17°29' W 063°01'0 0.0
2018-Apr-16 11:49N 17°29' W 063°01'0 0.1
2018-Apr-16 11:26N 17°29' W 063°01'0 0.0
2018-Apr-16 10:57N 17°29' W 063°01'0 0.0
2018-Apr-16 10:27N 17°29' W 063°01'0 0.0
2018-Apr-16 09:52N 17°29' W 063°01'0 0.1
2018-Apr-16 09:24N 17°29' W 063°01'1 2.0
2018-Apr-16 08:57N 17°29' W 062°60'0 0.2
2018-Apr-16 08:22N 17°29' W 062°60'1 1.0
2018-Apr-16 07:48N 17°29' W 063°00'0 0.1
2018-Apr-16 07:24N 17°29' W 063°00'0 0.0
2018-Apr-16 06:54N 17°29' W 063°00'0 0.1
2018-Apr-16 06:29N 17°29' W 063°00'1 0.1
2018-Apr-16 00:33N 17°29' W 063°01'0 0.1
2018-Apr-16 00:27N 17°29' W 063°01'0 0.0
2018-Apr-15 21:07N 17°29' W 063°01'0 0.0
2018-Apr-15 20:51N 17°29' W 063°01'0 0.0
2018-Apr-15 20:24N 17°29' W 063°01'0 0.1
2018-Apr-15 19:59N 17°29' W 063°01'1 0.7
2018-Apr-15 18:56N 17°29' W 063°00'0 0.0
2018-Apr-15 18:28N 17°29' W 063°00'0 0.4
2018-Apr-15 17:54N 17°29' W 063°00'0 0.0
2018-Apr-15 17:20N 17°29' W 063°00'0 0.2
2018-Apr-15 17:00N 17°29' W 063°00'0 0.0
2018-Apr-15 15:49N 17°29' W 063°00'0 0.0
2018-Apr-15 15:23N 17°29' W 063°00'0 0.1
2018-Apr-15 13:49N 17°29' W 063°00'0 0.6
2018-Apr-15 13:27N 17°29' W 063°00'0 0.0
2018-Apr-15 09:54N 17°29' W 063°00'0 0.0
2018-Apr-15 09:08N 17°29' W 063°00'0 0.0
2018-Apr-15 08:56N 17°29' W 063°00'0 0.0
2018-Apr-15 08:27N 17°29' W 063°00'0 0.0
2018-Apr-15 07:59N 17°29' W 063°00'0 0.0
2018-Apr-15 07:23N 17°29' W 063°00'0 0.0
2018-Apr-15 06:51N 17°29' W 063°00'0 0.0
2018-Apr-15 06:27N 17°29' W 063°00'1 2.1
2018-Apr-15 06:01N 17°29' W 062°59'1 1.1
2018-Apr-15 04:36N 17°30' W 063°00'0 2.4
2018-Apr-15 04:29N 17°30' W 063°01'1 1.7
2018-Apr-15 03:55N 17°29' W 063°01'0 0.0
2018-Apr-15 03:20N 17°29' W 063°01'0 0.0
2018-Apr-15 03:00N 17°29' W 063°01'0 0.0
2018-Apr-15 02:30N 17°29' W 063°01'0 0.0
2018-Apr-15 01:08N 17°29' W 063°01'0 0.0
2018-Apr-15 01:00N 17°29' W 063°01'0 0.0
2018-Apr-15 00:23N 17°29' W 063°01'0 0.0
2018-Apr-15 00:00N 17°29' W 063°01'0 0.0
2018-Apr-14 23:30N 17°29' W 063°01'1 0.7
2018-Apr-14 22:47N 17°29' W 063°01'0 1.1
2018-Apr-14 22:25N 17°29' W 063°00'1 1.8
2018-Apr-14 21:59N 17°29' W 063°01'0 0.0
2018-Apr-14 21:17N 17°29' W 063°01'0 0.0
2018-Apr-14 21:01N 17°29' W 063°01'0 0.0
2018-Apr-14 20:26N 17°29' W 063°01'0 0.0
2018-Apr-14 19:57N 17°29' W 063°01'0 0.0
2018-Apr-14 19:24N 17°29' W 063°01'0 0.0
2018-Apr-14 19:00N 17°29' W 063°01'1 0.4
2018-Apr-14 15:37N 17°30' W 063°00'1 0.1
2018-Apr-14 08:20N 17°29' W 063°01'20 4.6
2018-Apr-14 04:00N 17°16' W 062°45'11 0.6
2018-Apr-13 08:53N 17°22' W 062°54'2 5.5
2018-Apr-13 08:30N 17°23' W 062°56'3 5.3
2018-Apr-13 07:57N 17°25' W 062°58'4 2.1
2018-Apr-13 05:57N 17°29' W 063°00'0 0.2
2018-Apr-13 05:29N 17°29' W 063°00'0 0.4
2018-Apr-13 04:56N 17°29' W 063°00'1 1.9
2018-Apr-13 04:27N 17°29' W 063°01'0 0.0
2018-Apr-12 23:52N 17°29' W 063°01'1 0.4
2018-Apr-12 22:11N 17°29' W 063°01'1 1.5
2018-Apr-12 21:40N 17°29' W 063°00'0 0.4
2018-Apr-12 21:15N 17°29' W 063°00'0 0.3
2018-Apr-12 20:33N 17°29' W 063°00'0 0.1
2018-Apr-12 20:28N 17°29' W 063°00'0 0.4
2018-Apr-12 19:58N 17°29' W 063°00'1 0.5
2018-Apr-12 18:45N 17°29' W 062°60'0 0.0
2018-Apr-12 18:13N 17°29' W 062°60'0 0.1
2018-Apr-12 17:52N 17°29' W 062°60'0 0.1
2018-Apr-12 17:27N 17°29' W 062°60'0 0.3
2018-Apr-12 16:16N 17°29' W 063°00'0 0.0
2018-Apr-12 15:23N 17°29' W 063°00'0 0.0
2018-Apr-12 14:55N 17°29' W 063°00'2 2.9
2018-Apr-12 14:19N 17°31' W 063°00'2 0.7
2018-Apr-12 11:54N 17°29' W 063°00'0 0.0
2018-Apr-12 09:46N 17°29' W 063°00'0 0.0
2018-Apr-12 09:21N 17°29' W 063°00'0 0.0
2018-Apr-12 08:59N 17°29' W 063°00'0 0.0
2018-Apr-12 08:30N 17°29' W 063°00'0 0.0
2018-Apr-12 07:52N 17°29' W 063°00'0 0.0
2018-Apr-12 07:29N 17°29' W 063°00'0 0.0
2018-Apr-12 06:58N 17°29' W 063°00'0 0.0
2018-Apr-12 06:25N 17°29' W 063°00'0 0.0
2018-Apr-12 05:52N 17°29' W 063°00'0 0.0
2018-Apr-12 05:15N 17°29' W 063°00'0 0.1
2018-Apr-12 04:58N 17°29' W 063°00'0 0.0
2018-Apr-12 04:27N 17°29' W 063°00'0 0.0
2018-Apr-12 04:00N 17°29' W 063°00'0 0.0
2018-Apr-12 03:23N 17°29' W 063°00'0 0.0
2018-Apr-12 02:34N 17°29' W 063°00'0 0.0
2018-Apr-12 02:16N 17°29' W 063°00'0 0.0
2018-Apr-12 01:56N 17°29' W 063°00'0 0.0
2018-Apr-12 01:28N 17°29' W 063°00'0 0.0
2018-Apr-12 00:57N 17°29' W 063°00'0 0.0
2018-Apr-11 23:37N 17°29' W 063°00'0 0.0
2018-Apr-11 23:13N 17°29' W 063°00'0 0.1
2018-Apr-11 22:59N 17°29' W 063°00'0 0.0
2018-Apr-11 22:15N 17°29' W 063°00'0 0.0
2018-Apr-11 20:31N 17°29' W 063°00'0 0.1
2018-Apr-11 20:22N 17°29' W 063°00'1 1.5
2018-Apr-11 19:57N 17°29' W 062°60'0 0.8
2018-Apr-11 19:20N 17°29' W 063°00'0 0.4
2018-Apr-11 19:00N 17°29' W 063°00'1 1.2
2018-Apr-11 18:16N 17°30' W 063°00'0 1.9
2018-Apr-11 18:00N 17°29' W 063°00'1 0.4
2018-Apr-11 16:34N 17°30' W 063°00'2 1.2
2018-Apr-11 15:21N 17°29' W 062°59'1 2.6
2018-Apr-11 14:59N 17°29' W 063°00'0 0.0
2018-Apr-11 11:08N 17°29' W 063°00'0 0.0
2018-Apr-11 10:56N 17°29' W 063°00'1 1.5
2018-Apr-11 10:27N 17°29' W 062°59'1 1.5
2018-Apr-11 09:57N 17°29' W 063°00'0 0.0
2018-Apr-11 09:19N 17°29' W 063°00'0 0.0
2018-Apr-11 08:52N 17°29' W 063°00'0 0.0
2018-Apr-11 08:27N 17°29' W 063°00'0 0.0
2018-Apr-11 08:01N 17°29' W 063°00'0 0.0
2018-Apr-11 07:14N 17°29' W 063°00'0 0.0
2018-Apr-11 06:55N 17°29' W 063°00'0 0.0
2018-Apr-11 06:30N 17°29' W 063°00'0 0.0
2018-Apr-11 05:56N 17°29' W 063°00'0 0.0
2018-Apr-11 05:18N 17°29' W 063°00'0 0.0
2018-Apr-11 04:41N 17°29' W 063°00'0 0.0
2018-Apr-11 04:24N 17°29' W 063°00'0 0.0
2018-Apr-11 03:46N 17°29' W 063°00'0 0.0
2018-Apr-11 03:20N 17°29' W 063°00'0 0.0
2018-Apr-11 02:55N 17°29' W 063°00'0 0.0
2018-Apr-11 02:13N 17°29' W 063°00'0 0.1
2018-Apr-10 20:45N 17°29' W 063°00'0 0.1
2018-Apr-10 18:42N 17°29' W 063°00'0 0.0
2018-Apr-10 17:37N 17°29' W 063°00'0 0.3
2018-Apr-10 17:11N 17°29' W 063°00'0 0.3
2018-Apr-10 16:51N 17°29' W 063°00'0 1.1
2018-Apr-10 16:29N 17°29' W 063°00'0 0.0
2018-Apr-10 15:59N 17°29' W 063°00'0 0.0
2018-Apr-10 14:55N 17°29' W 063°00'0 0.0
2018-Apr-10 14:19N 17°29' W 063°00'0 0.0
2018-Apr-10 12:53N 17°29' W 063°00'0 0.0
2018-Apr-10 12:24N 17°29' W 063°00'0 0.0
2018-Apr-10 12:00N 17°29' W 063°00'0 0.0
2018-Apr-10 11:25N 17°29' W 063°00'0 0.0
2018-Apr-10 10:15N 17°29' W 063°00'0 0.8
2018-Apr-10 09:56N 17°29' W 063°00'1 1.9
2018-Apr-10 09:10N 17°30' W 063°01'1 3.0
2018-Apr-10 08:57N 17°31' W 063°02'  
Track history (hours):
 
Tides and Currents Weather Stations Pressure Air Temp Water Temp Dewpoint Dewpoint Depression Visibility Wind Speed Wind Dir Waves Ship Positions

Statia Express

Last reported at 2018-Apr-20 08:30 UTC. Time now 2018-Apr-20 08:43 UTC.
Position N 17°29' W 063°00'.

Length 28 m; draft 4.1 m.

Type: Tug. MMSI: 538003879.

Date/timePositionNaut miles runAvg speedWind from/ knotsBaromVisibWave heightAir tempDewpointWater temp
2018-Apr-20 08:30N 17°29' W 063°00'0 0.0
2018-Apr-20 07:52N 17°29' W 063°00'0 0.0
2018-Apr-20 07:27N 17°29' W 063°00'1 0.5
2018-Apr-20 06:25N 17°29' W 063°01'0 0.2
2018-Apr-20 05:55N 17°29' W 063°01'1 0.4
2018-Apr-20 04:47N 17°29' W 063°00'0 0.1
2018-Apr-20 04:26N 17°29' W 063°00'0 0.1
2018-Apr-20 03:59N 17°29' W 063°00'0 0.4
2018-Apr-20 03:19N 17°29' W 063°00'0 0.0
2018-Apr-20 02:33N 17°29' W 063°00'0 0.0
2018-Apr-20 01:36N 17°29' W 063°00'0 0.0
2018-Apr-20 01:19N 17°29' W 063°00'0 0.0
2018-Apr-20 00:54N 17°29' W 063°00'0 0.0
2018-Apr-20 00:27N 17°29' W 063°00'21 0.5
2018-Apr-18 05:29N 17°16' W 062°43'1 0.1
2018-Apr-17 18:44N 17°17' W 062°43'0 0.0
2018-Apr-17 18:29N 17°17' W 062°43'3 0.3
2018-Apr-17 09:41N 17°17' W 062°46'1 4.6
2018-Apr-17 09:29N 17°17' W 062°47'11 4.7
2018-Apr-17 07:12N 17°23' W 062°56'1 4.4
2018-Apr-17 06:58N 17°24' W 062°57'6 2.0
2018-Apr-17 03:51N 17°29' W 063°00'0 0.1
2018-Apr-17 03:26N 17°29' W 063°00'0 0.0
2018-Apr-17 02:53N 17°29' W 063°00'0 0.0
2018-Apr-16 23:50N 17°29' W 063°00'0 0.0
2018-Apr-16 23:23N 17°29' W 063°00'0 0.0
2018-Apr-16 23:00N 17°29' W 063°00'0 0.0
2018-Apr-16 22:25N 17°29' W 063°00'0 0.0
2018-Apr-16 21:56N 17°29' W 063°00'0 0.1
2018-Apr-16 21:27N 17°29' W 063°00'0 0.4
2018-Apr-16 20:49N 17°29' W 063°00'0 0.0
2018-Apr-16 20:27N 17°29' W 063°00'0 0.7
2018-Apr-16 19:58N 17°29' W 063°00'0 0.0
2018-Apr-16 19:29N 17°29' W 063°00'0 0.4
2018-Apr-16 18:21N 17°29' W 063°00'0 0.0
2018-Apr-16 18:00N 17°29' W 063°00'0 0.0
2018-Apr-16 17:29N 17°29' W 063°00'0 0.0
2018-Apr-16 17:00N 17°29' W 063°00'0 0.0
2018-Apr-16 16:26N 17°29' W 063°00'0 0.0
2018-Apr-16 14:30N 17°29' W 063°00'0 0.3
2018-Apr-16 13:57N 17°29' W 063°00'1 0.5
2018-Apr-16 12:43N 17°29' W 063°01'0 0.3
2018-Apr-16 12:28N 17°29' W 063°01'0 0.0
2018-Apr-16 11:49N 17°29' W 063°01'0 0.1
2018-Apr-16 11:26N 17°29' W 063°01'0 0.0
2018-Apr-16 10:57N 17°29' W 063°01'0 0.0
2018-Apr-16 10:27N 17°29' W 063°01'0 0.0
2018-Apr-16 09:52N 17°29' W 063°01'0 0.1
2018-Apr-16 09:24N 17°29' W 063°01'1 2.0
2018-Apr-16 08:57N 17°29' W 062°60'0 0.2
2018-Apr-16 08:22N 17°29' W 062°60'1 1.0
2018-Apr-16 07:48N 17°29' W 063°00'0 0.1
2018-Apr-16 07:24N 17°29' W 063°00'0 0.0
2018-Apr-16 06:54N 17°29' W 063°00'0 0.1
2018-Apr-16 06:29N 17°29' W 063°00'1 0.1
2018-Apr-16 00:33N 17°29' W 063°01'0 0.1
2018-Apr-16 00:27N 17°29' W 063°01'0 0.0
2018-Apr-15 21:07N 17°29' W 063°01'0 0.0
2018-Apr-15 20:51N 17°29' W 063°01'0 0.0
2018-Apr-15 20:24N 17°29' W 063°01'0 0.1
2018-Apr-15 19:59N 17°29' W 063°01'1 0.7
2018-Apr-15 18:56N 17°29' W 063°00'0 0.0
2018-Apr-15 18:28N 17°29' W 063°00'0 0.4
2018-Apr-15 17:54N 17°29' W 063°00'0 0.0
2018-Apr-15 17:20N 17°29' W 063°00'0 0.2
2018-Apr-15 17:00N 17°29' W 063°00'0 0.0
2018-Apr-15 15:49N 17°29' W 063°00'0 0.0
2018-Apr-15 15:23N 17°29' W 063°00'0 0.1
2018-Apr-15 13:49N 17°29' W 063°00'0 0.6
2018-Apr-15 13:27N 17°29' W 063°00'0 0.0
2018-Apr-15 09:54N 17°29' W 063°00'0 0.0
2018-Apr-15 09:08N 17°29' W 063°00'0 0.0
2018-Apr-15 08:56N 17°29' W 063°00'0 0.0
2018-Apr-15 08:27N 17°29' W 063°00'0 0.0
2018-Apr-15 07:59N 17°29' W 063°00'0 0.0
2018-Apr-15 07:23N 17°29' W 063°00'0 0.0
2018-Apr-15 06:51N 17°29' W 063°00'0 0.0
2018-Apr-15 06:27N 17°29' W 063°00'1 2.1
2018-Apr-15 06:01N 17°29' W 062°59'1 1.1
2018-Apr-15 04:36N 17°30' W 063°00'0 2.4
2018-Apr-15 04:29N 17°30' W 063°01'1 1.7
2018-Apr-15 03:55N 17°29' W 063°01'0 0.0
2018-Apr-15 03:20N 17°29' W 063°01'0 0.0
2018-Apr-15 03:00N 17°29' W 063°01'0 0.0
2018-Apr-15 02:30N 17°29' W 063°01'0 0.0
2018-Apr-15 01:08N 17°29' W 063°01'0 0.0
2018-Apr-15 01:00N 17°29' W 063°01'0 0.0
2018-Apr-15 00:23N 17°29' W 063°01'0 0.0
2018-Apr-15 00:00N 17°29' W 063°01'0 0.0
2018-Apr-14 23:30N 17°29' W 063°01'1 0.7
2018-Apr-14 22:47N 17°29' W 063°01'0 1.1
2018-Apr-14 22:25N 17°29' W 063°00'1 1.8
2018-Apr-14 21:59N 17°29' W 063°01'0 0.0
2018-Apr-14 21:17N 17°29' W 063°01'0 0.0
2018-Apr-14 21:01N 17°29' W 063°01'0 0.0
2018-Apr-14 20:26N 17°29' W 063°01'0 0.0
2018-Apr-14 19:57N 17°29' W 063°01'0 0.0
2018-Apr-14 19:24N 17°29' W 063°01'0 0.0
2018-Apr-14 19:00N 17°29' W 063°01'1 0.4
2018-Apr-14 15:37N 17°30' W 063°00'1 0.1
2018-Apr-14 08:20N 17°29' W 063°01'20 4.6
2018-Apr-14 04:00N 17°16' W 062°45'11 0.6
2018-Apr-13 08:53N 17°22' W 062°54'2 5.5
2018-Apr-13 08:30N 17°23' W 062°56'3 5.3
2018-Apr-13 07:57N 17°25' W 062°58'4 2.1
2018-Apr-13 05:57N 17°29' W 063°00'0 0.2
2018-Apr-13 05:29N 17°29' W 063°00'0 0.4
2018-Apr-13 04:56N 17°29' W 063°00'1 1.9
2018-Apr-13 04:27N 17°29' W 063°01'0 0.0
2018-Apr-12 23:52N 17°29' W 063°01'1 0.4
2018-Apr-12 22:11N 17°29' W 063°01'1 1.5
2018-Apr-12 21:40N 17°29' W 063°00'0 0.4
2018-Apr-12 21:15N 17°29' W 063°00'0 0.3
2018-Apr-12 20:33N 17°29' W 063°00'0 0.1
2018-Apr-12 20:28N 17°29' W 063°00'0 0.4
2018-Apr-12 19:58N 17°29' W 063°00'1 0.5
2018-Apr-12 18:45N 17°29' W 062°60'0 0.0
2018-Apr-12 18:13N 17°29' W 062°60'0 0.1
2018-Apr-12 17:52N 17°29' W 062°60'0 0.1
2018-Apr-12 17:27N 17°29' W 062°60'0 0.3
2018-Apr-12 16:16N 17°29' W 063°00'0 0.0
2018-Apr-12 15:23N 17°29' W 063°00'0 0.0
2018-Apr-12 14:55N 17°29' W 063°00'2 2.9
2018-Apr-12 14:19N 17°31' W 063°00'2 0.7
2018-Apr-12 11:54N 17°29' W 063°00'0 0.0
2018-Apr-12 09:46N 17°29' W 063°00'0 0.0
2018-Apr-12 09:21N 17°29' W 063°00'0 0.0
2018-Apr-12 08:59N 17°29' W 063°00'0 0.0
2018-Apr-12 08:30N 17°29' W 063°00'0 0.0
2018-Apr-12 07:52N 17°29' W 063°00'0 0.0
2018-Apr-12 07:29N 17°29' W 063°00'0 0.0
2018-Apr-12 06:58N 17°29' W 063°00'0 0.0
2018-Apr-12 06:25N 17°29' W 063°00'0 0.0
2018-Apr-12 05:52N 17°29' W 063°00'0 0.0
2018-Apr-12 05:15N 17°29' W 063°00'0 0.1
2018-Apr-12 04:58N 17°29' W 063°00'0 0.0
2018-Apr-12 04:27N 17°29' W 063°00'0 0.0
2018-Apr-12 04:00N 17°29' W 063°00'0 0.0
2018-Apr-12 03:23N 17°29' W 063°00'0 0.0
2018-Apr-12 02:34N 17°29' W 063°00'0 0.0
2018-Apr-12 02:16N 17°29' W 063°00'0 0.0
2018-Apr-12 01:56N 17°29' W 063°00'0 0.0
2018-Apr-12 01:28N 17°29' W 063°00'0 0.0
2018-Apr-12 00:57N 17°29' W 063°00'0 0.0
2018-Apr-11 23:37N 17°29' W 063°00'0 0.0
2018-Apr-11 23:13N 17°29' W 063°00'0 0.1
2018-Apr-11 22:59N 17°29' W 063°00'0 0.0
2018-Apr-11 22:15N 17°29' W 063°00'0 0.0
2018-Apr-11 20:31N 17°29' W 063°00'0 0.1
2018-Apr-11 20:22N 17°29' W 063°00'1 1.5
2018-Apr-11 19:57N 17°29' W 062°60'0 0.8
2018-Apr-11 19:20N 17°29' W 063°00'0 0.4
2018-Apr-11 19:00N 17°29' W 063°00'1 1.2
2018-Apr-11 18:16N 17°30' W 063°00'0 1.9
2018-Apr-11 18:00N 17°29' W 063°00'1 0.4
2018-Apr-11 16:34N 17°30' W 063°00'2 1.2
2018-Apr-11 15:21N 17°29' W 062°59'1 2.6
2018-Apr-11 14:59N 17°29' W 063°00'0 0.0
2018-Apr-11 11:08N 17°29' W 063°00'0 0.0
2018-Apr-11 10:56N 17°29' W 063°00'1 1.5
2018-Apr-11 10:27N 17°29' W 062°59'1 1.5
2018-Apr-11 09:57N 17°29' W 063°00'0 0.0
2018-Apr-11 09:19N 17°29' W 063°00'0 0.0
2018-Apr-11 08:52N 17°29' W 063°00'0 0.0
2018-Apr-11 08:27N 17°29' W 063°00'0 0.0
2018-Apr-11 08:01N 17°29' W 063°00'0 0.0
2018-Apr-11 07:14N 17°29' W 063°00'0 0.0
2018-Apr-11 06:55N 17°29' W 063°00'0 0.0
2018-Apr-11 06:30N 17°29' W 063°00'0 0.0
2018-Apr-11 05:56N 17°29' W 063°00'0 0.0
2018-Apr-11 05:18N 17°29' W 063°00'0 0.0
2018-Apr-11 04:41N 17°29' W 063°00'0 0.0
2018-Apr-11 04:24N 17°29' W 063°00'0 0.0
2018-Apr-11 03:46N 17°29' W 063°00'0 0.0
2018-Apr-11 03:20N 17°29' W 063°00'0 0.0
2018-Apr-11 02:55N 17°29' W 063°00'0 0.0
2018-Apr-11 02:13N 17°29' W 063°00'0 0.1
2018-Apr-10 20:45N 17°29' W 063°00'0 0.1
2018-Apr-10 18:42N 17°29' W 063°00'0 0.0
2018-Apr-10 17:37N 17°29' W 063°00'0 0.3
2018-Apr-10 17:11N 17°29' W 063°00'0 0.3
2018-Apr-10 16:51N 17°29' W 063°00'0 1.1
2018-Apr-10 16:29N 17°29' W 063°00'0 0.0
2018-Apr-10 15:59N 17°29' W 063°00'0 0.0
2018-Apr-10 14:55N 17°29' W 063°00'0 0.0
2018-Apr-10 14:19N 17°29' W 063°00'0 0.0
2018-Apr-10 12:53N 17°29' W 063°00'0 0.0
2018-Apr-10 12:24N 17°29' W 063°00'0 0.0
2018-Apr-10 12:00N 17°29' W 063°00'0 0.0
2018-Apr-10 11:25N 17°29' W 063°00'0 0.0
2018-Apr-10 10:15N 17°29' W 063°00'0 0.8
2018-Apr-10 09:56N 17°29' W 063°00'1 1.9
2018-Apr-10 09:10N 17°30' W 063°01'1 3.0
2018-Apr-10 08:57N 17°31' W 063°02'  

Dump ship's entire track history